createdAt,value
2017-06-22T19:10:36.172Z,6.30
2017-06-22T19:13:03.777Z,6.67
2017-06-22T19:15:31.294Z,6.07
2017-06-22T19:17:58.864Z,6.03
2017-06-22T19:20:26.506Z,5.93
2017-06-22T19:22:54.024Z,6.47
2017-06-22T19:25:22.389Z,4.57
2017-06-22T19:27:49.956Z,4.73
2017-06-22T19:30:17.469Z,4.73
2017-06-22T19:32:45.011Z,6.27
2017-06-22T19:35:12.545Z,4.67
2017-06-22T19:37:40.850Z,4.00
2017-06-22T19:40:09.191Z,3.63
2017-06-22T19:42:37.514Z,3.70
2017-06-22T19:45:05.049Z,3.10
2017-06-22T19:47:33.430Z,3.20
2017-06-22T19:50:00.979Z,4.10
2017-06-22T19:52:28.926Z,2.97
2017-06-22T19:54:56.851Z,3.77
2017-06-22T19:57:24.401Z,3.40
2017-06-22T19:59:51.903Z,3.37
2017-06-22T20:02:19.417Z,3.00
2017-06-22T20:04:46.959Z,4.10
2017-06-22T20:07:15.215Z,3.40
2017-06-22T20:09:42.758Z,3.00
2017-06-22T20:12:10.289Z,3.40
2017-06-22T20:14:37.806Z,3.67
2017-06-22T20:17:05.351Z,3.37
2017-06-22T20:19:32.924Z,3.13
2017-06-22T20:22:00.445Z,3.70
2017-06-22T20:24:27.997Z,3.60
2017-06-22T20:26:55.529Z,2.83
2017-06-22T20:29:23.126Z,3.30
2017-06-22T20:31:50.614Z,2.90
2017-06-22T20:34:18.159Z,2.60
2017-06-22T20:36:45.719Z,2.23
2017-06-22T20:39:13.271Z,2.90
2017-06-22T20:41:40.821Z,2.30
2017-06-22T20:44:08.333Z,3.37
2017-06-22T20:46:36.586Z,3.93
2017-06-22T20:49:04.120Z,4.20
2017-06-22T20:51:31.656Z,4.57
2017-06-22T20:53:59.180Z,3.60
2017-06-22T20:56:27.593Z,3.80
2017-06-22T20:58:55.104Z,3.47
2017-06-22T21:01:22.639Z,3.93
2017-06-22T21:06:46.925Z,3.70
2017-06-22T21:09:14.463Z,4.70
2017-06-22T21:11:42.731Z,3.90
2017-06-22T21:14:11.015Z,4.03
2017-06-22T21:16:39.308Z,4.50
2017-06-22T21:19:06.841Z,3.23
2017-06-22T21:21:35.105Z,4.57
2017-06-22T21:24:02.627Z,4.90
2017-06-22T21:26:30.140Z,4.30
2017-06-22T21:28:57.761Z,4.10
2017-06-22T21:31:25.272Z,4.73
2017-06-22T21:33:52.787Z,4.23
2017-06-22T21:36:21.231Z,4.33
2017-06-22T21:38:50.150Z,5.27
2017-06-22T21:41:17.662Z,5.03
2017-06-22T21:43:48.957Z,4.10
2017-06-22T21:46:16.466Z,4.47
2017-06-22T21:48:44.001Z,4.47
2017-06-22T21:51:11.569Z,4.10
2017-06-22T21:53:39.210Z,6.40
2017-06-22T21:56:06.954Z,8.20
2017-06-22T21:58:34.458Z,8.97
2017-06-22T22:01:02.892Z,9.60
2017-06-22T22:03:30.429Z,7.70
2017-06-22T22:05:58.003Z,10.40
2017-06-22T22:08:25.589Z,11.63
2017-06-22T22:10:53.121Z,13.30
2017-06-22T22:13:20.642Z,10.37
2017-06-22T22:15:48.932Z,12.03
2017-06-22T22:18:16.608Z,13.20
2017-06-22T22:20:44.132Z,13.87
2017-06-22T22:23:11.823Z,17.13
2017-06-22T22:25:39.335Z,14.70
2017-06-22T22:28:06.872Z,13.80
2017-06-22T22:30:34.417Z,15.53
2017-06-22T22:33:01.915Z,14.20
2017-06-22T22:35:29.425Z,13.17
2017-06-22T22:37:56.944Z,11.63
2017-06-22T22:40:24.558Z,12.20
2017-06-22T22:42:52.046Z,10.00
2017-06-22T22:45:19.954Z,9.67
2017-06-22T22:47:47.440Z,13.23
2017-06-22T22:50:14.943Z,15.40
2017-06-22T22:52:42.547Z,13.87
2017-06-22T22:55:10.040Z,13.73
2017-06-22T22:57:37.551Z,13.13
2017-06-22T23:00:05.090Z,13.00
2017-06-22T23:02:32.580Z,15.27
2017-06-22T23:05:00.144Z,14.77
2017-06-22T23:07:27.819Z,11.07
2017-06-22T23:09:55.310Z,11.37
2017-06-22T23:12:22.802Z,10.90
2017-06-22T23:14:51.099Z,11.83
2017-06-22T23:17:18.623Z,12.67
2017-06-22T23:19:46.122Z,14.83
2017-06-22T23:22:13.885Z,14.83
2017-06-22T23:24:42.099Z,13.50
2017-06-22T23:27:09.612Z,14.30
2017-06-22T23:29:37.133Z,11.63
2017-06-22T23:32:04.631Z,12.90
2017-06-22T23:34:32.137Z,13.30
2017-06-22T23:36:59.710Z,15.20
2017-06-22T23:39:27.226Z,14.07
2017-06-22T23:41:54.793Z,14.40
2017-06-22T23:44:22.318Z,15.80
2017-06-22T23:46:50.601Z,15.40
2017-06-22T23:49:18.110Z,15.23
2017-06-22T23:51:45.847Z,14.07
2017-06-22T23:54:13.344Z,12.80
2017-06-22T23:56:40.835Z,14.10
2017-06-22T23:59:09.135Z,15.80
